Clinton, British Columbia

1:13 AM PST on February 12, 2016 (GMT -0800)
Bleibler Ranch | | Change Station
CLOSE
Current Station
Airport
Location: Bleibler Ranch,
Elevation: 3698 ft
Nearby Weather Stations

Elev 3698 ft 51.27 °N, 121.68 °W | Updated 13 minutes ago

Overcast
Overcast
32 °F
Feels Like 20 °F
N
18
Wind Variable Wind from SE
Gusts 25 mph

Today is forecast to be nearly the same temperature as yesterday.

Today
High -- | Low -- °F
--% Chance of Precip.
Yesterday
High -- | Low -- °F
Precip. -- in
Pressure 30.07 in
Visibility 9.0 miles
Clouds Overcast 300 ft
Windchill 20 °F
Dew Point 32 °F
Humidity 100%
Rainfall 0.00 in
Snow Depth Not available.
7:25 AM 5:16 PM
Waxing Crescent, 19% visible
METAR CYIN 120900Z AUTO 14016G22KT 9SM OVC003 00/00 A2997 RMK SLP181
Pressure 30.07 in
Visibility 9.0 miles
Clouds Overcast 300 ft
Windchill 20 °F
Dew Point 32 °F
Humidity 100%
Rainfall 0.00 in
Snow Depth Not available.
7:25 AM 5:16 PM
Waxing Crescent, 19% visible
METAR CYIN 120900Z AUTO 14016G22KT 9SM OVC003 00/00 A2997 RMK SLP181

10-Day Weather Forecast

No radar image for this location.
×

Almanac

Astronomy

Feb. 12, 2016 Rise Set
Actual Time
Civil Twilight
Nautical Twilight
Astronomical Twilight
Moon
Length of Visible Light
Length of Day
Tomorrow will be .
, % of the Moon is Illuminated

Today's Extremes

Country Highs Country Lows

Community

WunderPhotos

Upload Photos

1,892,286 photos uploaded!

WunderBlog® & News

Nearby

Air Quality

  Air Quality AQ Index Pollutant
Not available.

Snow Depth

Station Depth Elevation

Earthquake Activity

City Distance Mag. Time & Date
Minimum magnitude displayed is 2.5.

Coastal Water Temperatures

Place Temperature

Stations

Nearby Weather Stations

Station Location Temp. Windchill Dew Point Humidity Wind Precip. Elev Updated Type
                   

Watches & Warnings

There are currently no watches in effect.